createdAt,value
2023-04-05T00:02:00.438Z,100.00
2023-04-05T00:04:28.738Z,100.00
2023-04-05T00:06:57.559Z,100.00
2023-04-05T00:09:24.248Z,100.00
2023-04-05T00:11:50.944Z,100.00
2023-04-05T00:14:17.624Z,100.00
2023-04-05T00:16:44.392Z,100.00
2023-04-05T00:19:13.879Z,100.00
2023-04-05T00:21:40.679Z,100.00
2023-04-05T00:24:09.399Z,100.00
2023-04-05T00:26:36.365Z,100.00
2023-04-05T00:29:03.224Z,100.00
2023-04-05T00:31:30.658Z,100.00
2023-04-05T00:33:57.837Z,100.00
2023-04-05T00:36:24.596Z,100.00
2023-04-05T00:38:51.291Z,100.00
2023-04-05T00:41:17.994Z,100.00
2023-04-05T00:43:44.798Z,100.00
2023-04-05T00:46:11.609Z,100.00
2023-04-05T00:48:38.822Z,100.00
2023-04-05T00:51:09.491Z,100.00
2023-04-05T00:53:37.719Z,100.00
2023-04-05T00:56:04.863Z,100.00
2023-04-05T00:58:31.980Z,100.00
2023-04-05T01:01:06.493Z,100.00
2023-04-05T01:03:35.275Z,100.00
2023-04-05T01:06:35.851Z,100.00
2023-04-05T01:09:14.812Z,100.00
2023-04-05T01:11:43.784Z,100.00
2023-04-05T01:14:10.580Z,100.00
2023-04-05T01:16:37.197Z,100.00
2023-04-05T01:19:04.283Z,100.00
2023-04-05T01:21:39.985Z,100.00
2023-04-05T01:24:15.939Z,100.00
2023-04-05T01:27:16.491Z,100.00
2023-04-05T01:30:04.598Z,100.00
2023-04-05T01:32:59.998Z,100.00
2023-04-05T01:35:39.391Z,100.00
2023-04-05T01:38:10.426Z,100.00
2023-04-05T01:40:39.067Z,100.00
2023-04-05T01:43:16.304Z,100.00
2023-04-05T01:45:44.304Z,100.00
2023-04-05T01:48:12.092Z,100.00
2023-04-05T01:50:39.387Z,100.00
2023-04-05T01:53:07.904Z,100.00
2023-04-05T01:55:35.382Z,100.00
2023-04-05T01:58:02.225Z,100.00
2023-04-05T02:00:28.949Z,100.00
2023-04-05T02:02:56.474Z,100.00
2023-04-05T02:05:23.181Z,100.00
2023-04-05T02:07:49.806Z,100.00
2023-04-05T02:10:18.184Z,100.00
2023-04-05T02:12:45.123Z,100.00
2023-04-05T02:15:12.567Z,100.00
2023-04-05T02:17:40.062Z,100.00
2023-04-05T02:20:07.784Z,100.00
2023-04-05T02:22:34.994Z,100.00
2023-04-05T02:25:01.689Z,100.00
2023-04-05T02:27:28.362Z,100.00
2023-04-05T02:29:57.319Z,100.00
2023-04-05T02:32:25.059Z,100.00
2023-04-05T02:34:52.482Z,100.00
2023-04-05T02:37:22.207Z,100.00
2023-04-05T02:39:48.850Z,100.00
2023-04-05T02:42:15.435Z,100.00
2023-04-05T02:44:42.141Z,100.00
2023-04-05T02:47:10.408Z,100.00
2023-04-05T02:49:37.226Z,100.00
2023-04-05T02:52:05.722Z,100.00
2023-04-05T02:54:32.574Z,100.00
2023-04-05T02:57:02.389Z,100.00
2023-04-05T02:59:34.126Z,100.00
2023-04-05T03:02:01.452Z,100.00
2023-04-05T03:04:28.357Z,100.00
2023-04-05T03:07:04.787Z,100.00
2023-04-05T03:09:34.999Z,100.00
2023-04-05T03:12:06.218Z,100.00
2023-04-05T03:14:36.789Z,100.00
2023-04-05T03:17:03.599Z,100.00
2023-04-05T03:19:36.259Z,100.00
2023-04-05T03:22:16.493Z,100.00
2023-04-05T03:24:43.414Z,100.00
2023-04-05T03:27:13.149Z,100.00
2023-04-05T03:29:55.314Z,100.00
2023-04-05T03:32:21.911Z,100.00
2023-04-05T03:34:55.959Z,100.00
2023-04-05T03:37:23.603Z,100.00
2023-04-05T03:39:59.823Z,100.00
2023-04-05T03:42:26.447Z,100.00
2023-04-05T03:44:54.224Z,100.00
2023-04-05T03:47:21.114Z,100.00
2023-04-05T03:49:48.022Z,100.00
2023-04-05T03:52:14.656Z,100.00
2023-04-05T03:54:44.594Z,100.00
2023-04-05T03:57:13.033Z,100.00
2023-04-05T03:59:41.981Z,100.00
2023-04-05T04:02:08.683Z,100.00
2023-04-05T04:04:35.582Z,100.00
2023-04-05T04:07:02.261Z,100.00
2023-04-05T04:09:30.044Z,100.00
2023-04-05T04:12:01.053Z,100.00
2023-04-05T04:14:27.802Z,100.00
2023-04-05T04:17:27.988Z,100.00
2023-04-05T04:20:14.736Z,100.00
2023-04-05T04:22:53.959Z,100.00
2023-04-05T04:25:39.516Z,100.00
2023-04-05T04:28:34.760Z,100.00
2023-04-05T04:31:14.615Z,100.00
2023-04-05T04:33:59.320Z,100.00
2023-04-05T04:36:46.528Z,100.00
2023-04-05T04:39:16.053Z,100.00
2023-04-05T04:42:11.871Z,100.00
2023-04-05T04:44:54.541Z,100.00
2023-04-05T04:47:30.664Z,100.00
2023-04-05T04:50:16.197Z,100.00
2023-04-05T04:52:42.950Z,100.00
2023-04-05T04:55:10.595Z,100.00
2023-04-05T04:57:37.243Z,100.00
2023-04-05T05:00:12.040Z,100.00
2023-04-05T05:02:39.908Z,100.00
2023-04-05T05:05:07.693Z,100.00
2023-04-05T05:07:35.231Z,100.00
2023-04-05T05:10:03.053Z,100.00
2023-04-05T05:12:31.352Z,100.00
2023-04-05T05:14:58.044Z,100.00
2023-04-05T05:17:26.017Z,100.00
2023-04-05T05:19:54.666Z,100.00
2023-04-05T05:22:22.476Z,100.00
2023-04-05T05:24:49.188Z,100.00
2023-04-05T05:27:15.815Z,100.00
2023-04-05T05:29:42.470Z,100.00
2023-04-05T05:32:09.559Z,100.00
2023-04-05T05:34:37.293Z,100.00
2023-04-05T05:37:03.992Z,100.00
2023-04-05T05:39:30.618Z,100.00
2023-04-05T05:41:57.310Z,100.00
2023-04-05T05:44:23.906Z,100.00
2023-04-05T05:46:50.662Z,100.00
2023-04-05T05:49:17.417Z,100.00
2023-04-05T05:51:44.018Z,100.00
2023-04-05T05:54:10.621Z,100.00
2023-04-05T05:56:37.431Z,100.00
2023-04-05T05:59:04.157Z,100.00
2023-04-05T06:01:30.894Z,100.00
2023-04-05T06:03:57.584Z,100.00
2023-04-05T06:06:24.353Z,100.00
2023-04-05T06:08:51.439Z,100.00
2023-04-05T06:11:22.994Z,100.00
2023-04-05T06:13:52.515Z,100.00
2023-04-05T06:16:19.326Z,100.00
2023-04-05T06:18:46.042Z,100.00
2023-04-05T06:21:12.884Z,100.00
2023-04-05T06:23:41.899Z,100.00
2023-04-05T06:26:09.189Z,100.00
2023-04-05T06:28:35.803Z,100.00
2023-04-05T06:31:02.393Z,100.00
2023-04-05T06:33:29.145Z,100.00
2023-04-05T06:35:55.910Z,100.00
2023-04-05T06:38:22.619Z,100.00
2023-04-05T06:40:49.226Z,100.00
2023-04-05T06:43:15.880Z,100.00
2023-04-05T06:45:43.123Z,100.00
2023-04-05T06:48:09.795Z,100.00
2023-04-05T06:50:36.501Z,100.00
2023-04-05T06:53:03.910Z,100.00
2023-04-05T06:55:30.559Z,100.00
2023-04-05T06:57:57.145Z,100.00
2023-04-05T07:00:23.839Z,100.00
2023-04-05T07:02:50.805Z,100.00
2023-04-05T07:05:17.835Z,100.00
2023-04-05T07:07:45.562Z,100.00
2023-04-05T07:10:12.473Z,100.00
2023-04-05T07:12:39.932Z,100.00
2023-04-05T07:15:07.469Z,100.00
2023-04-05T07:17:35.332Z,100.00
2023-04-05T07:20:02.291Z,100.00
2023-04-05T07:22:28.903Z,100.00
2023-04-05T07:24:55.716Z,100.00
2023-04-05T07:27:22.374Z,100.00
2023-04-05T07:29:49.254Z,100.00
2023-04-05T07:32:16.153Z,100.00
2023-04-05T07:34:42.857Z,100.00
2023-04-05T07:37:09.668Z,100.00
2023-04-05T07:39:36.490Z,100.00
2023-04-05T07:42:03.215Z,100.00
2023-04-05T07:44:29.869Z,100.00
2023-04-05T07:46:56.607Z,100.00
2023-04-05T07:49:27.639Z,96.24
2023-04-05T07:51:56.415Z,92.04
2023-04-05T07:54:23.556Z,86.99
2023-04-05T07:56:50.720Z,87.10
2023-04-05T07:59:17.718Z,84.34
2023-04-05T08:01:44.454Z,83.20
2023-04-05T08:04:11.241Z,86.08
2023-04-05T08:06:38.135Z,82.78
2023-04-05T08:09:05.900Z,84.45
2023-04-05T08:11:33.233Z,83.57
2023-04-05T08:14:00.263Z,81.25
2023-04-05T08:16:27.889Z,80.13
2023-04-05T08:18:54.636Z,81.75
2023-04-05T08:21:22.330Z,80.80
2023-04-05T08:23:50.204Z,79.48
2023-04-05T08:26:17.352Z,83.02
2023-04-05T08:28:44.175Z,76.74
2023-04-05T08:31:13.039Z,79.19
2023-04-05T08:33:40.612Z,78.20
2023-04-05T08:36:09.397Z,78.50
2023-04-05T08:38:36.901Z,77.95
2023-04-05T08:41:27.265Z,76.36
2023-04-05T08:43:57.887Z,76.00
2023-04-05T08:46:25.445Z,77.29
2023-04-05T08:48:52.972Z,75.91
2023-04-05T08:51:21.488Z,73.93
2023-04-05T08:53:48.961Z,72.09
2023-04-05T08:56:19.250Z,72.85
2023-04-05T08:58:51.473Z,73.69
2023-04-05T09:01:18.565Z,72.81
2023-04-05T09:03:47.170Z,72.67
2023-04-05T09:06:15.677Z,72.24
2023-04-05T09:08:42.499Z,71.74
2023-04-05T09:11:11.563Z,71.35
2023-04-05T09:13:38.269Z,71.48
2023-04-05T09:16:05.349Z,72.03
2023-04-05T09:18:32.223Z,71.96
2023-04-05T09:21:04.599Z,72.07
2023-04-05T09:23:31.980Z,72.08
2023-04-05T09:25:58.660Z,72.84
2023-04-05T09:28:41.486Z,73.73
2023-04-05T09:31:08.283Z,71.66
2023-04-05T09:33:35.805Z,70.98
2023-04-05T09:36:02.852Z,69.97
2023-04-05T09:38:43.612Z,69.88
2023-04-05T09:41:13.303Z,68.13
2023-04-05T09:43:41.794Z,70.79
2023-04-05T09:46:39.724Z,67.94
2023-04-05T09:49:09.496Z,69.33
2023-04-05T09:51:38.733Z,67.04
2023-04-05T09:54:10.710Z,68.92
2023-04-05T09:56:41.839Z,69.10
2023-04-05T09:59:11.553Z,68.47
2023-04-05T10:01:41.484Z,68.44
2023-04-05T10:04:08.987Z,68.24
2023-04-05T10:06:38.328Z,66.94
2023-04-05T10:09:06.673Z,66.79
2023-04-05T10:11:34.603Z,66.94
2023-04-05T10:14:06.261Z,67.61
2023-04-05T10:16:37.140Z,67.95
2023-04-05T10:19:09.131Z,68.59
2023-04-05T10:21:42.847Z,69.28
2023-04-05T10:24:46.233Z,70.82
2023-04-05T10:27:22.564Z,70.18
2023-04-05T10:30:05.938Z,69.42
2023-04-05T10:33:16.579Z,69.49
2023-04-05T10:35:55.442Z,68.88
2023-04-05T10:38:26.064Z,69.29
2023-04-05T10:41:12.441Z,66.67
2023-04-05T10:43:41.063Z,67.09
2023-04-05T10:46:08.930Z,67.95
2023-04-05T10:48:53.628Z,67.72
2023-04-05T10:51:23.998Z,68.61
2023-04-05T10:53:51.823Z,67.53
2023-04-05T10:56:20.798Z,67.13
2023-04-05T10:58:49.960Z,66.42
2023-04-05T11:01:18.849Z,66.18
2023-04-05T11:03:49.000Z,66.65
2023-04-05T11:06:21.889Z,66.01
2023-04-05T11:08:51.415Z,66.78
2023-04-05T11:11:19.196Z,67.31
2023-04-05T11:13:51.274Z,64.69
2023-04-05T11:16:18.251Z,66.09
2023-04-05T11:18:47.419Z,64.47
2023-04-05T11:21:25.332Z,64.01
2023-04-05T11:24:06.647Z,62.76
2023-04-05T11:26:53.073Z,64.10
2023-04-05T11:29:39.775Z,62.67
2023-04-05T11:32:12.437Z,62.31
2023-04-05T11:34:42.147Z,62.48
2023-04-05T11:37:08.779Z,61.08
2023-04-05T11:39:37.318Z,60.31
2023-04-05T11:42:06.544Z,61.81
2023-04-05T11:44:44.301Z,60.91
2023-04-05T11:47:11.693Z,62.32
2023-04-05T11:49:39.470Z,62.74
2023-04-05T11:52:15.003Z,62.65
2023-04-05T11:54:46.426Z,63.42
2023-04-05T11:57:21.090Z,63.09
2023-04-05T11:59:53.305Z,63.21
2023-04-05T12:02:21.480Z,63.03
2023-04-05T12:04:58.333Z,63.97
2023-04-05T12:07:29.445Z,61.80
2023-04-05T12:10:08.804Z,62.51
2023-04-05T12:12:40.897Z,62.92
2023-04-05T12:15:09.489Z,62.68
2023-04-05T12:17:39.089Z,61.23
2023-04-05T12:20:06.793Z,61.97
2023-04-05T12:22:33.618Z,61.28
2023-04-05T12:25:00.377Z,59.15
2023-04-05T12:27:27.138Z,60.52
2023-04-05T12:30:06.283Z,57.41
2023-04-05T12:32:52.166Z,58.67
2023-04-05T12:35:32.928Z,55.37
2023-04-05T12:38:02.303Z,55.96
2023-04-05T12:40:31.058Z,56.92
2023-04-05T12:43:06.205Z,57.69
2023-04-05T12:45:40.527Z,58.64
2023-04-05T12:48:11.173Z,55.72
2023-04-05T12:50:43.727Z,54.35
2023-04-05T12:53:17.813Z,55.17
2023-04-05T12:55:49.358Z,54.71
2023-04-05T12:58:17.545Z,54.64
2023-04-05T13:00:45.152Z,55.85
2023-04-05T13:03:21.044Z,56.25
2023-04-05T13:05:49.333Z,56.77
2023-04-05T13:08:18.318Z,57.38
2023-04-05T13:10:49.320Z,57.47
2023-04-05T13:13:17.382Z,59.74
2023-04-05T13:15:45.383Z,59.57
2023-04-05T13:18:14.772Z,57.63
2023-04-05T13:20:45.591Z,58.90
2023-04-05T13:23:12.999Z,59.21
2023-04-05T13:25:41.493Z,58.25
2023-04-05T13:28:08.963Z,60.75
2023-04-05T13:30:35.691Z,60.82
2023-04-05T13:33:04.511Z,59.98
2023-04-05T13:35:31.941Z,61.39
2023-04-05T13:37:59.732Z,61.07
2023-04-05T13:40:27.762Z,60.92
2023-04-05T13:42:54.382Z,60.07
2023-04-05T13:45:21.051Z,61.30
2023-04-05T13:47:47.669Z,61.80
2023-04-05T13:50:14.504Z,60.92
2023-04-05T13:52:41.222Z,62.17
2023-04-05T13:55:08.191Z,61.35
2023-04-05T13:57:34.834Z,60.90
2023-04-05T14:00:01.677Z,60.80
2023-04-05T14:02:39.150Z,60.38
2023-04-05T14:05:07.492Z,61.52
2023-04-05T14:07:35.242Z,59.66
2023-04-05T14:10:01.992Z,58.70
2023-04-05T14:12:28.703Z,55.86
2023-04-05T14:14:55.416Z,55.21
2023-04-05T14:17:22.140Z,53.89
2023-04-05T14:19:48.843Z,55.24
2023-04-05T14:22:15.666Z,54.53
2023-04-05T14:24:42.358Z,53.93
2023-04-05T14:27:09.113Z,52.36
2023-04-05T14:29:35.855Z,52.23
2023-04-05T14:32:02.734Z,50.99
2023-04-05T14:34:29.675Z,51.21
2023-04-05T14:36:58.347Z,50.42
2023-04-05T14:39:25.308Z,50.95
2023-04-05T14:41:52.774Z,51.41
2023-04-05T14:44:19.722Z,50.68
2023-04-05T14:46:46.587Z,49.95
2023-04-05T14:49:13.310Z,49.42
2023-04-05T14:51:40.316Z,48.98
2023-04-05T14:54:07.063Z,49.35
2023-04-05T14:56:33.806Z,48.99
2023-04-05T14:59:00.626Z,48.64
2023-04-05T15:01:27.432Z,48.90
2023-04-05T15:03:54.161Z,49.49
2023-04-05T15:06:20.925Z,48.96
2023-04-05T15:08:47.631Z,48.17
2023-04-05T15:11:14.474Z,49.34
2023-04-05T15:13:41.222Z,52.27
2023-04-05T15:16:08.018Z,50.96
2023-04-05T15:18:34.765Z,51.24
2023-04-05T15:21:01.602Z,52.89
2023-04-05T15:23:28.445Z,53.65
2023-04-05T15:25:55.241Z,55.57
2023-04-05T15:28:21.917Z,56.19
2023-04-05T15:30:51.066Z,56.60
2023-04-05T15:33:17.826Z,58.15
2023-04-05T15:35:44.573Z,58.15
2023-04-05T15:38:11.294Z,58.50
2023-04-05T15:40:39.752Z,58.88
2023-04-05T15:43:06.486Z,57.01
2023-04-05T15:45:33.164Z,57.79
2023-04-05T15:48:00.006Z,57.02
2023-04-05T15:50:27.131Z,57.20
2023-04-05T15:52:53.930Z,56.83
2023-04-05T15:55:20.646Z,56.70
2023-04-05T15:57:49.473Z,56.35
2023-04-05T16:00:16.501Z,55.71
2023-04-05T16:02:43.351Z,56.63
2023-04-05T16:05:10.651Z,56.57
2023-04-05T16:07:37.377Z,55.90
2023-04-05T16:10:04.952Z,56.34
2023-04-05T16:12:31.679Z,57.42
2023-04-05T16:14:58.388Z,57.34
2023-04-05T16:17:25.874Z,58.19
2023-04-05T16:19:54.095Z,58.33
2023-04-05T16:22:22.565Z,58.80
2023-04-05T16:24:49.298Z,58.43
2023-04-05T16:27:16.744Z,58.55
2023-04-05T16:29:43.393Z,58.12
2023-04-05T16:32:10.174Z,57.56
2023-04-05T16:34:36.887Z,58.32
2023-04-05T16:37:03.569Z,58.11
2023-04-05T16:39:30.246Z,59.08
2023-04-05T16:41:57.010Z,60.18
2023-04-05T16:44:23.738Z,58.25
2023-04-05T16:46:50.558Z,58.62
2023-04-05T16:49:17.373Z,58.77
2023-04-05T16:51:44.084Z,57.63
2023-04-05T16:54:10.773Z,58.36
2023-04-05T16:56:37.761Z,58.46
2023-04-05T16:59:07.264Z,59.52
2023-04-05T17:01:35.359Z,59.37
2023-04-05T17:04:02.077Z,58.88
2023-04-05T17:06:29.051Z,58.87
2023-04-05T17:08:55.833Z,58.96
2023-04-05T17:11:22.688Z,59.45
2023-04-05T17:13:49.577Z,59.68
2023-04-05T17:16:16.759Z,60.74
2023-04-05T17:18:43.623Z,59.51
2023-04-05T17:21:12.360Z,60.65
2023-04-05T17:23:39.928Z,60.45
2023-04-05T17:26:06.702Z,60.37
2023-04-05T17:28:34.668Z,60.66
2023-04-05T17:31:02.228Z,60.81
2023-04-05T17:33:29.336Z,60.96
2023-04-05T17:35:56.017Z,61.99
2023-04-05T17:38:22.821Z,62.93
2023-04-05T17:40:49.570Z,63.57
2023-04-05T17:43:16.369Z,64.02
2023-04-05T17:45:43.094Z,64.54
2023-04-05T17:48:09.899Z,65.00
2023-04-05T17:50:37.292Z,66.05
2023-04-05T17:53:04.099Z,66.27
2023-04-05T17:55:33.582Z,64.94
2023-04-05T17:58:00.390Z,66.07
2023-04-05T18:00:27.019Z,65.64
2023-04-05T18:02:53.763Z,67.05
2023-04-05T18:05:20.848Z,66.99
2023-04-05T18:07:47.588Z,67.91
2023-04-05T18:10:14.262Z,68.44
2023-04-05T18:12:41.363Z,68.32
2023-04-05T18:15:08.686Z,68.28
2023-04-05T18:17:35.425Z,69.85
2023-04-05T18:20:02.366Z,70.36
2023-04-05T18:22:32.358Z,72.21
2023-04-05T18:24:59.106Z,74.20
2023-04-05T18:27:26.201Z,73.61
2023-04-05T18:29:52.940Z,73.30
2023-04-05T18:32:19.778Z,75.08
2023-04-05T18:34:46.795Z,75.31
2023-04-05T18:37:13.455Z,75.88
2023-04-05T18:39:40.129Z,76.46
2023-04-05T18:42:06.884Z,77.08
2023-04-05T18:44:33.787Z,79.05
2023-04-05T18:47:01.197Z,78.68
2023-04-05T18:49:27.959Z,79.70
2023-04-05T18:51:55.886Z,79.90
2023-04-05T18:54:22.782Z,75.81
2023-04-05T18:56:49.558Z,76.74
2023-04-05T18:59:17.437Z,77.06
2023-04-05T19:01:44.458Z,76.96
2023-04-05T19:04:11.321Z,77.18
2023-04-05T19:06:38.025Z,77.06
2023-04-05T19:09:04.814Z,78.22
2023-04-05T19:11:31.605Z,78.64
2023-04-05T19:14:00.474Z,77.72
2023-04-05T19:16:27.420Z,78.63
2023-04-05T19:18:54.191Z,78.47
2023-04-05T19:21:21.136Z,78.43
2023-04-05T19:23:47.807Z,78.12
2023-04-05T19:26:14.501Z,78.06
2023-04-05T19:28:41.592Z,79.18
2023-04-05T19:31:09.868Z,80.35
2023-04-05T19:33:36.644Z,80.52
2023-04-05T19:36:03.501Z,83.16
2023-04-05T19:38:30.355Z,85.11
2023-04-05T19:40:57.175Z,86.56
2023-04-05T19:43:24.976Z,89.18
2023-04-05T19:45:56.845Z,95.75
2023-04-05T19:48:44.433Z,97.71
2023-04-05T19:51:14.258Z,100.00
2023-04-05T19:53:42.495Z,100.00
2023-04-05T19:56:20.356Z,100.00
2023-04-05T19:58:56.061Z,96.62
2023-04-05T20:01:36.393Z,92.91
2023-04-05T20:04:23.906Z,91.94
2023-04-05T20:06:56.959Z,91.90
2023-04-05T20:09:30.947Z,91.72
2023-04-05T20:11:59.310Z,94.42
2023-04-05T20:14:40.989Z,98.03
2023-04-05T20:17:08.503Z,100.00
2023-04-05T20:19:35.328Z,100.00
2023-04-05T20:22:05.918Z,100.00
2023-04-05T20:24:32.725Z,100.00
2023-04-05T20:26:59.462Z,100.00
2023-04-05T20:29:28.670Z,100.00
2023-04-05T20:31:55.609Z,100.00
2023-04-05T20:34:31.770Z,100.00
2023-04-05T20:37:09.756Z,100.00
2023-04-05T20:39:36.777Z,100.00
2023-04-05T20:42:03.930Z,100.00
2023-04-05T20:44:31.414Z,100.00
2023-04-05T20:46:58.356Z,100.00
2023-04-05T20:49:28.143Z,100.00
2023-04-05T20:51:54.985Z,100.00
2023-04-05T20:54:22.494Z,100.00
2023-04-05T20:56:49.201Z,100.00
2023-04-05T20:59:16.633Z,100.00
2023-04-05T21:01:43.494Z,100.00
2023-04-05T21:04:10.457Z,100.00
2023-04-05T21:06:37.479Z,100.00
2023-04-05T21:09:04.883Z,100.00
2023-04-05T21:11:31.702Z,100.00
2023-04-05T21:13:58.424Z,100.00
2023-04-05T21:16:25.384Z,100.00
2023-04-05T21:18:52.245Z,100.00
2023-04-05T21:21:18.949Z,100.00
2023-04-05T21:23:45.723Z,100.00
2023-04-05T21:26:12.424Z,100.00
2023-04-05T21:28:39.136Z,100.00
2023-04-05T21:31:05.887Z,100.00
2023-04-05T21:33:32.671Z,100.00
2023-04-05T21:35:59.497Z,100.00
2023-04-05T21:38:26.193Z,100.00
2023-04-05T21:40:52.927Z,100.00
2023-04-05T21:43:19.631Z,100.00
2023-04-05T21:45:46.926Z,100.00
2023-04-05T21:48:13.550Z,100.00
2023-04-05T21:50:40.325Z,100.00
2023-04-05T21:53:09.190Z,100.00
2023-04-05T21:55:35.948Z,100.00
2023-04-05T21:58:02.693Z,100.00
2023-04-05T22:00:29.403Z,100.00
2023-04-05T22:02:56.165Z,100.00
2023-04-05T22:05:36.318Z,100.00
2023-04-05T22:08:05.656Z,100.00
2023-04-05T22:10:32.721Z,100.00
2023-04-05T22:12:59.384Z,100.00
2023-04-05T22:15:26.097Z,100.00
2023-04-05T22:17:52.931Z,100.00
2023-04-05T22:20:19.683Z,100.00
2023-04-05T22:22:46.362Z,100.00
2023-04-05T22:25:13.057Z,100.00
2023-04-05T22:27:39.789Z,100.00
2023-04-05T22:30:08.129Z,100.00
2023-04-05T22:32:35.703Z,100.00
2023-04-05T22:35:04.288Z,100.00
2023-04-05T22:37:35.783Z,100.00
2023-04-05T22:40:04.636Z,100.00
2023-04-05T22:42:31.591Z,100.00
2023-04-05T22:44:58.324Z,100.00
2023-04-05T22:47:25.109Z,100.00
2023-04-05T22:49:52.252Z,100.00
2023-04-05T22:52:18.997Z,100.00
2023-04-05T22:54:46.009Z,100.00
2023-04-05T22:57:13.000Z,100.00
2023-04-05T22:59:39.825Z,100.00
2023-04-05T23:02:06.623Z,100.00
2023-04-05T23:04:33.477Z,100.00
2023-04-05T23:07:00.270Z,100.00
2023-04-05T23:09:27.297Z,100.00
2023-04-05T23:11:54.188Z,100.00
2023-04-05T23:14:20.997Z,100.00
2023-04-05T23:16:47.670Z,100.00
2023-04-05T23:19:14.380Z,100.00
2023-04-05T23:21:41.705Z,100.00
2023-04-05T23:24:08.513Z,100.00
2023-04-05T23:26:35.201Z,100.00
2023-04-05T23:29:02.130Z,100.00
2023-04-05T23:31:29.392Z,100.00
2023-04-05T23:33:56.127Z,100.00
2023-04-05T23:36:22.839Z,100.00
2023-04-05T23:38:49.528Z,100.00
2023-04-05T23:41:16.402Z,100.00
2023-04-05T23:43:43.127Z,100.00
2023-04-05T23:46:10.749Z,100.00
2023-04-05T23:48:37.500Z,100.00
2023-04-05T23:51:04.498Z,100.00
2023-04-05T23:53:31.212Z,100.00
2023-04-05T23:55:57.916Z,100.00
2023-04-05T23:58:24.622Z,100.00
